Richards, MO (64778)

5:33 AM CDT on September 25, 2016 (GMT -0500)
DEAN'S WEATHER STATION | | Change Station

Elev 909 ft 38.08 °N, 94.77 °W | Updated 8 seconds ago

Rain
Rain
68.3 °F
Feels Like 68.3 °F
N
3.5
Wind Variable Wind from South
Gusts 3.5 mph

Today
High -- | Low -- °F
--% Chance of Precip.
Yesterday
High -- | Low -- °F
Precip. -- in
Pressure 30.04 in
Visibility 10.0 miles
Clouds Overcast 11000 ft
Dew Point 67 °F
Humidity 97%
Rainfall 0.09 in
Snow Depth Not available.
7:09 AM 7:09 PM
Waning Crescent, 29% visible
METAR KPTS 251015Z AUTO 14004KT 10SM OVC110 22/21 A3004 RMK AO2 T02170211
Pressure 30.04 in
Visibility 10.0 miles
Clouds Overcast 11000 ft
Dew Point 67 °F
Humidity 97%
Rainfall 0.09 in
Snow Depth Not available.
7:09 AM 7:09 PM
Waning Crescent, 29% visible
METAR KPTS 251015Z AUTO 14004KT 10SM OVC110 22/21 A3004 RMK AO2 T02170211

10-Day Weather Forecast

Almanac

Astronomy

Sep. 25, 2016 Rise Set
Actual Time
Civil Twilight
Nautical Twilight
Astronomical Twilight
Moon
Length of Visible Light
Length of Day
Tomorrow will be .
, % of the Moon is Illuminated

Today's Extremes

State Highs State Lows

Community

WunderPhotos

Upload Photos

1,941,566 photos uploaded!

WunderBlog® & News

Nearby

Air Quality

  Air Quality AQ Index Pollutant
Not available.

Snow Depth

Station Depth Elevation

Earthquake Activity

City Distance Mag. Time & Date
Minimum magnitude displayed is 2.5.

Coastal Water Temperatures

Place Temperature

Stations

Nearby Weather Stations

Station Location Temp. Windchill Dew Point Humidity Wind Precip. Elev Updated Type
                   

Watches & Warnings

There are currently no watches in effect.